sensor_id;sensor_type;location;lat;lon;timestamp;temperature;humidity
33460;DHT22;19795;53.160;6.612;2024-03-23T06:18:51;5.10;99.90
33460;DHT22;19795;53.160;6.612;2024-03-23T06:27:23;4.40;99.90
33460;DHT22;19795;53.160;6.612;2024-03-23T06:29:48;4.80;99.90
33460;DHT22;19795;53.160;6.612;2024-03-23T06:32:14;4.60;99.90
33460;DHT22;19795;53.160;6.612;2024-03-23T06:34:43;4.10;99.90
33460;DHT22;19795;53.160;6.612;2024-03-23T06:37:08;4.00;99.90
33460;DHT22;19795;53.160;6.612;2024-03-23T06:39:36;4.00;99.90
33460;DHT22;19795;53.160;6.612;2024-03-23T06:42:02;4.20;99.90
33460;DHT22;19795;53.160;6.612;2024-03-23T06:44:28;4.50;99.90
33460;DHT22;19795;53.160;6.612;2024-03-23T06:46:55;4.80;99.90
33460;DHT22;19795;53.160;6.612;2024-03-23T06:49:20;4.80;99.90
33460;DHT22;19795;53.160;6.612;2024-03-23T06:51:46;4.80;99.90
33460;DHT22;19795;53.160;6.612;2024-03-23T06:54:12;4.60;99.90
33460;DHT22;19795;53.160;6.612;2024-03-23T06:56:38;4.50;99.90
33460;DHT22;19795;53.160;6.612;2024-03-23T06:59:04;4.60;99.90
33460;DHT22;19795;53.160;6.612;2024-03-23T07:01:29;4.70;99.90
33460;DHT22;19795;53.160;6.612;2024-03-23T07:03:55;4.80;99.90
33460;DHT22;19795;53.160;6.612;2024-03-23T07:06:21;5.20;99.90
33460;DHT22;19795;53.160;6.612;2024-03-23T07:08:47;5.40;99.90
33460;DHT22;19795;53.160;6.612;2024-03-23T07:11:18;5.70;99.90
33460;DHT22;19795;53.160;6.612;2024-03-23T07:13:45;6.20;99.90
33460;DHT22;19795;53.160;6.612;2024-03-23T07:16:11;6.30;99.90
33460;DHT22;19795;53.160;6.612;2024-03-23T07:18:37;6.20;99.90
33460;DHT22;19795;53.160;6.612;2024-03-23T07:21:02;5.80;99.90
33460;DHT22;19795;53.160;6.612;2024-03-23T07:44:43;6.60;99.90
33460;DHT22;19795;53.160;6.612;2024-03-23T07:47:09;7.70;99.90
33460;DHT22;19795;53.160;6.612;2024-03-23T07:52:50;9.30;99.90
33460;DHT22;19795;53.160;6.612;2024-03-23T07:55:16;9.80;99.90
33460;DHT22;19795;53.160;6.612;2024-03-23T07:57:41;10.30;99.90
33460;DHT22;19795;53.160;6.612;2024-03-23T08:00:07;10.60;99.90
33460;DHT22;19795;53.160;6.612;2024-03-23T08:02:33;10.50;99.90
33460;DHT22;19795;53.160;6.612;2024-03-23T08:04:59;9.90;99.90
33460;DHT22;19795;53.160;6.612;2024-03-23T08:07:25;9.00;99.90
33460;DHT22;19795;53.160;6.612;2024-03-23T08:09:51;8.60;99.90
33460;DHT22;19795;53.160;6.612;2024-03-23T08:12:16;8.70;99.90
33460;DHT22;19795;53.160;6.612;2024-03-23T08:14:42;9.40;99.90
33460;DHT22;19795;53.160;6.612;2024-03-23T08:17:08;9.60;99.90
33460;DHT22;19795;53.160;6.612;2024-03-23T08:19:34;9.40;99.90
33460;DHT22;19795;53.160;6.612;2024-03-23T08:22:00;9.10;99.90
33460;DHT22;19795;53.160;6.612;2024-03-23T08:24:25;8.70;99.90
33460;DHT22;19795;53.160;6.612;2024-03-23T08:26:54;8.60;99.90
33460;DHT22;19795;53.160;6.612;2024-03-23T08:29:19;8.20;99.90
33460;DHT22;19795;53.160;6.612;2024-03-23T08:31:45;8.10;99.90
33460;DHT22;19795;53.160;6.612;2024-03-23T08:34:11;8.40;99.90
33460;DHT22;19795;53.160;6.612;2024-03-23T08:36:36;9.20;99.90
33460;DHT22;19795;53.160;6.612;2024-03-23T08:39:02;9.80;99.90
33460;DHT22;19795;53.160;6.612;2024-03-23T08:41:28;10.30;99.90
33460;DHT22;19795;53.160;6.612;2024-03-23T08:43:53;10.70;99.90
33460;DHT22;19795;53.160;6.612;2024-03-23T08:46:19;11.20;99.90
33460;DHT22;19795;53.160;6.612;2024-03-23T08:48:46;11.60;99.90
33460;DHT22;19795;53.160;6.612;2024-03-23T08:51:15;11.60;99.90
33460;DHT22;19795;53.160;6.612;2024-03-23T08:53:41;11.20;99.90
33460;DHT22;19795;53.160;6.612;2024-03-23T08:56:09;10.70;99.90
33460;DHT22;19795;53.160;6.612;2024-03-23T08:58:36;10.10;99.90
33460;DHT22;19795;53.160;6.612;2024-03-23T09:01:12;9.80;99.90
33460;DHT22;19795;53.160;6.612;2024-03-23T09:03:38;9.60;99.90
33460;DHT22;19795;53.160;6.612;2024-03-23T09:06:08;9.60;99.90
33460;DHT22;19795;53.160;6.612;2024-03-23T09:08:34;9.70;99.90
33460;DHT22;19795;53.160;6.612;2024-03-23T09:11:10;10.00;99.90
33460;DHT22;19795;53.160;6.612;2024-03-23T09:13:36;10.00;99.90
33460;DHT22;19795;53.160;6.612;2024-03-23T09:16:03;9.70;99.90
33460;DHT22;19795;53.160;6.612;2024-03-23T09:18:32;9.50;99.90
33460;DHT22;19795;53.160;6.612;2024-03-23T09:20:58;9.30;99.90
33460;DHT22;19795;53.160;6.612;2024-03-23T09:23:24;9.10;99.90
33460;DHT22;19795;53.160;6.612;2024-03-23T09:25:49;8.70;99.90
33460;DHT22;19795;53.160;6.612;2024-03-23T09:28:15;8.60;99.90
33460;DHT22;19795;53.160;6.612;2024-03-23T09:30:41;8.30;99.90
33460;DHT22;19795;53.160;6.612;2024-03-23T09:33:13;9.40;99.90
33460;DHT22;19795;53.160;6.612;2024-03-23T09:35:39;10.10;99.90
33460;DHT22;19795;53.160;6.612;2024-03-23T09:38:05;10.90;99.90
33460;DHT22;19795;53.160;6.612;2024-03-23T09:40:33;11.50;99.90
33460;DHT22;19795;53.160;6.612;2024-03-23T09:42:59;12.20;99.90
33460;DHT22;19795;53.160;6.612;2024-03-23T09:45:28;12.90;99.90
33460;DHT22;19795;53.160;6.612;2024-03-23T09:47:58;13.00;99.90
33460;DHT22;19795;53.160;6.612;2024-03-23T09:50:23;11.50;99.90
33460;DHT22;19795;53.160;6.612;2024-03-23T09:52:49;9.90;99.90
33460;DHT22;19795;53.160;6.612;2024-03-23T09:55:15;8.60;99.90
33460;DHT22;19795;53.160;6.612;2024-03-23T09:57:41;7.80;99.90
33460;DHT22;19795;53.160;6.612;2024-03-23T10:00:07;7.60;99.90
33460;DHT22;19795;53.160;6.612;2024-03-23T10:02:36;7.00;99.90
33460;DHT22;19795;53.160;6.612;2024-03-23T10:05:03;7.30;99.90
33460;DHT22;19795;53.160;6.612;2024-03-23T10:07:29;8.00;99.90
33460;DHT22;19795;53.160;6.612;2024-03-23T10:09:55;9.10;99.90
33460;DHT22;19795;53.160;6.612;2024-03-23T10:12:22;9.50;99.90
33460;DHT22;19795;53.160;6.612;2024-03-23T10:14:49;9.50;99.90
33460;DHT22;19795;53.160;6.612;2024-03-23T10:17:19;8.90;99.90
33460;DHT22;19795;53.160;6.612;2024-03-23T10:19:46;8.30;99.90
33460;DHT22;19795;53.160;6.612;2024-03-23T10:22:15;8.30;99.90
33460;DHT22;19795;53.160;6.612;2024-03-23T10:24:41;8.40;99.90
33460;DHT22;19795;53.160;6.612;2024-03-23T10:27:07;9.00;99.90
33460;DHT22;19795;53.160;6.612;2024-03-23T10:29:34;9.70;99.90
33460;DHT22;19795;53.160;6.612;2024-03-23T10:32:10;10.30;99.90
33460;DHT22;19795;53.160;6.612;2024-03-23T10:34:37;10.60;99.90
33460;DHT22;19795;53.160;6.612;2024-03-23T10:37:04;10.90;99.90
33460;DHT22;19795;53.160;6.612;2024-03-23T10:39:33;11.30;99.90
33460;DHT22;19795;53.160;6.612;2024-03-23T10:42:02;11.70;99.90
33460;DHT22;19795;53.160;6.612;2024-03-23T10:44:28;11.40;99.70
33460;DHT22;19795;53.160;6.612;2024-03-23T10:46:59;10.30;99.00
33460;DHT22;19795;53.160;6.612;2024-03-23T10:49:31;9.40;99.90
33460;DHT22;19795;53.160;6.612;2024-03-23T10:52:04;9.50;99.90
33460;DHT22;19795;53.160;6.612;2024-03-23T10:54:31;10.00;99.90
33460;DHT22;19795;53.160;6.612;2024-03-23T10:57:04;9.80;99.90
33460;DHT22;19795;53.160;6.612;2024-03-23T10:59:31;9.40;99.90
33460;DHT22;19795;53.160;6.612;2024-03-23T11:01:58;9.10;99.90
33460;DHT22;19795;53.160;6.612;2024-03-23T11:04:35;8.90;99.90
33460;DHT22;19795;53.160;6.612;2024-03-23T11:07:02;8.60;99.90
33460;DHT22;19795;53.160;6.612;2024-03-23T11:09:43;8.40;99.90
33460;DHT22;19795;53.160;6.612;2024-03-23T11:15:06;7.70;99.90
33460;DHT22;19795;53.160;6.612;2024-03-23T11:17:36;7.40;99.90
33460;DHT22;19795;53.160;6.612;2024-03-23T11:20:04;7.00;99.90
33460;DHT22;19795;53.160;6.612;2024-03-23T11:22:47;6.70;99.90
33460;DHT22;19795;53.160;6.612;2024-03-23T11:25:22;6.60;99.90
33460;DHT22;19795;53.160;6.612;2024-03-23T11:27:56;6.70;99.90
33460;DHT22;19795;53.160;6.612;2024-03-23T11:30:28;6.90;99.90
33460;DHT22;19795;53.160;6.612;2024-03-23T11:32:56;7.60;99.90
33460;DHT22;19795;53.160;6.612;2024-03-23T11:35:25;8.50;99.90
33460;DHT22;19795;53.160;6.612;2024-03-23T11:38:11;9.40;99.90
33460;DHT22;19795;53.160;6.612;2024-03-23T11:43:12;10.80;99.90
33460;DHT22;19795;53.160;6.612;2024-03-23T11:45:48;11.00;99.90
33460;DHT22;19795;53.160;6.612;2024-03-23T11:48:22;11.30;99.90
33460;DHT22;19795;53.160;6.612;2024-03-23T11:50:51;11.60;99.90
33460;DHT22;19795;53.160;6.612;2024-03-23T11:53:22;11.80;99.90
33460;DHT22;19795;53.160;6.612;2024-03-23T11:55:51;12.30;99.90
33460;DHT22;19795;53.160;6.612;2024-03-23T11:58:18;12.60;99.90
33460;DHT22;19795;53.160;6.612;2024-03-23T12:01:03;12.90;99.90
33460;DHT22;19795;53.160;6.612;2024-03-23T12:03:30;12.40;99.90
33460;DHT22;19795;53.160;6.612;2024-03-23T12:06:02;11.40;99.90
33460;DHT22;19795;53.160;6.612;2024-03-23T12:08:35;10.50;99.90
33460;DHT22;19795;53.160;6.612;2024-03-23T12:11:15;9.80;99.90
33460;DHT22;19795;53.160;6.612;2024-03-23T12:13:42;9.50;99.90
33460;DHT22;19795;53.160;6.612;2024-03-23T12:16:14;9.40;99.90
33460;DHT22;19795;53.160;6.612;2024-03-23T12:18:41;9.20;99.90
33460;DHT22;19795;53.160;6.612;2024-03-23T12:21:08;9.30;99.90
33460;DHT22;19795;53.160;6.612;2024-03-23T12:23:34;10.00;99.90
33460;DHT22;19795;53.160;6.612;2024-03-23T12:26:00;9.70;99.90
33460;DHT22;19795;53.160;6.612;2024-03-23T12:28:27;9.30;99.90
33460;DHT22;19795;53.160;6.612;2024-03-23T12:30:53;8.50;99.90
33460;DHT22;19795;53.160;6.612;2024-03-23T12:33:20;8.30;99.90
33460;DHT22;19795;53.160;6.612;2024-03-23T12:35:45;7.30;99.90
33460;DHT22;19795;53.160;6.612;2024-03-23T12:38:11;7.40;99.90
33460;DHT22;19795;53.160;6.612;2024-03-23T12:40:37;7.40;99.90
33460;DHT22;19795;53.160;6.612;2024-03-23T12:43:02;8.20;99.90
33460;DHT22;19795;53.160;6.612;2024-03-23T12:45:28;8.90;99.90
33460;DHT22;19795;53.160;6.612;2024-03-23T12:47:53;9.30;99.90
33460;DHT22;19795;53.160;6.612;2024-03-23T12:50:20;9.70;99.90
33460;DHT22;19795;53.160;6.612;2024-03-23T12:52:46;9.70;99.90
33460;DHT22;19795;53.160;6.612;2024-03-23T12:55:11;10.00;99.90
33460;DHT22;19795;53.160;6.612;2024-03-23T12:57:37;10.30;99.90
33460;DHT22;19795;53.160;6.612;2024-03-23T13:00:03;10.80;99.90
33460;DHT22;19795;53.160;6.612;2024-03-23T13:02:30;10.50;99.90
33460;DHT22;19795;53.160;6.612;2024-03-23T13:04:56;9.50;99.90
33460;DHT22;19795;53.160;6.612;2024-03-23T13:07:22;9.30;99.90
33460;DHT22;19795;53.160;6.612;2024-03-23T13:09:52;8.60;99.90
33460;DHT22;19795;53.160;6.612;2024-03-23T13:12:21;9.30;99.90
33460;DHT22;19795;53.160;6.612;2024-03-23T13:14:47;10.10;99.90
33460;DHT22;19795;53.160;6.612;2024-03-23T13:17:13;10.60;47.00
33460;DHT22;19795;53.160;6.612;2024-03-23T13:19:39;11.10;86.80
33460;DHT22;19795;53.160;6.612;2024-03-23T13:22:05;10.70;1.00
33460;DHT22;19795;53.160;6.612;2024-03-23T13:24:31;10.10;1.00
33460;DHT22;19795;53.160;6.612;2024-03-23T13:26:57;10.40;1.00
33460;DHT22;19795;53.160;6.612;2024-03-23T13:29:24;10.90;1.00
33460;DHT22;19795;53.160;6.612;2024-03-23T13:31:51;11.60;99.90
33460;DHT22;19795;53.160;6.612;2024-03-23T13:34:18;12.00;99.90
33460;DHT22;19795;53.160;6.612;2024-03-23T13:36:47;11.80;99.90
33460;DHT22;19795;53.160;6.612;2024-03-23T13:39:14;11.90;99.90
33460;DHT22;19795;53.160;6.612;2024-03-23T13:41:44;11.90;99.90
33460;DHT22;19795;53.160;6.612;2024-03-23T13:44:11;11.90;99.90
33460;DHT22;19795;53.160;6.612;2024-03-23T13:46:39;11.20;99.90
33460;DHT22;19795;53.160;6.612;2024-03-23T13:49:08;9.90;99.90
33460;DHT22;19795;53.160;6.612;2024-03-23T13:51:38;9.80;99.90
33460;DHT22;19795;53.160;6.612;2024-03-23T13:54:03;8.50;99.90
33460;DHT22;19795;53.160;6.612;2024-03-23T13:56:29;8.20;99.90
33460;DHT22;19795;53.160;6.612;2024-03-23T13:58:55;8.10;1.00
33460;DHT22;19795;53.160;6.612;2024-03-23T14:01:22;8.40;1.00
33460;DHT22;19795;53.160;6.612;2024-03-23T14:03:48;8.00;1.00
33460;DHT22;19795;53.160;6.612;2024-03-23T14:06:15;8.40;98.10
33460;DHT22;19795;53.160;6.612;2024-03-23T14:08:40;8.90;1.00
33460;DHT22;19795;53.160;6.612;2024-03-23T14:11:07;9.40;1.00
33460;DHT22;19795;53.160;6.612;2024-03-23T14:13:34;9.70;1.00
33460;DHT22;19795;53.160;6.612;2024-03-23T14:16:00;9.70;1.00
33460;DHT22;19795;53.160;6.612;2024-03-23T14:18:27;9.70;99.90
33460;DHT22;19795;53.160;6.612;2024-03-23T14:20:56;9.90;99.90
33460;DHT22;19795;53.160;6.612;2024-03-23T14:23:24;9.30;99.90
33460;DHT22;19795;53.160;6.612;2024-03-23T14:25:54;8.70;99.90
33460;DHT22;19795;53.160;6.612;2024-03-23T14:28:20;8.50;1.00
33460;DHT22;19795;53.160;6.612;2024-03-23T14:30:48;8.90;1.00
33460;DHT22;19795;53.160;6.612;2024-03-23T14:33:15;9.30;1.00
33460;DHT22;19795;53.160;6.612;2024-03-23T14:35:41;9.70;1.00
33460;DHT22;19795;53.160;6.612;2024-03-23T14:38:07;10.10;99.90
33460;DHT22;19795;53.160;6.612;2024-03-23T14:40:35;10.50;99.90
33460;DHT22;19795;53.160;6.612;2024-03-23T14:43:01;10.60;99.90
33460;DHT22;19795;53.160;6.612;2024-03-23T14:45:30;10.60;99.90
33460;DHT22;19795;53.160;6.612;2024-03-23T14:47:56;10.80;99.90
33460;DHT22;19795;53.160;6.612;2024-03-23T14:50:23;10.30;99.90
33460;DHT22;19795;53.160;6.612;2024-03-23T14:52:49;10.10;99.90
33460;DHT22;19795;53.160;6.612;2024-03-23T14:55:16;10.00;99.90
33460;DHT22;19795;53.160;6.612;2024-03-23T14:57:42;10.10;99.90
33460;DHT22;19795;53.160;6.612;2024-03-23T15:00:09;9.80;99.90
33460;DHT22;19795;53.160;6.612;2024-03-23T15:02:37;9.30;99.90
33460;DHT22;19795;53.160;6.612;2024-03-23T15:05:03;8.80;99.90
33460;DHT22;19795;53.160;6.612;2024-03-23T15:07:30;8.50;99.90
33460;DHT22;19795;53.160;6.612;2024-03-23T15:09:56;8.30;99.90
33460;DHT22;19795;53.160;6.612;2024-03-23T15:12:21;8.80;1.00
33460;DHT22;19795;53.160;6.612;2024-03-23T15:14:47;8.90;1.00
33460;DHT22;19795;53.160;6.612;2024-03-23T15:17:13;9.30;99.90
33460;DHT22;19795;53.160;6.612;2024-03-23T15:19:39;9.40;99.90
33460;DHT22;19795;53.160;6.612;2024-03-23T15:22:05;9.80;99.90
33460;DHT22;19795;53.160;6.612;2024-03-23T15:24:31;9.70;99.90
33460;DHT22;19795;53.160;6.612;2024-03-23T15:26:57;10.20;99.90
33460;DHT22;19795;53.160;6.612;2024-03-23T15:29:22;10.50;99.90
33460;DHT22;19795;53.160;6.612;2024-03-23T15:31:48;10.30;99.90
33460;DHT22;19795;53.160;6.612;2024-03-23T15:34:18;10.40;99.90
33460;DHT22;19795;53.160;6.612;2024-03-23T15:36:44;10.70;99.90
33460;DHT22;19795;53.160;6.612;2024-03-23T15:39:10;10.70;99.90
33460;DHT22;19795;53.160;6.612;2024-03-23T15:41:39;10.80;99.90
33460;DHT22;19795;53.160;6.612;2024-03-23T15:44:05;10.80;99.90
33460;DHT22;19795;53.160;6.612;2024-03-23T15:46:31;10.20;99.90
33460;DHT22;19795;53.160;6.612;2024-03-23T15:48:57;10.10;99.90
33460;DHT22;19795;53.160;6.612;2024-03-23T15:51:22;9.50;99.90
33460;DHT22;19795;53.160;6.612;2024-03-23T15:53:49;9.60;99.90
33460;DHT22;19795;53.160;6.612;2024-03-23T15:56:17;9.10;99.90
33460;DHT22;19795;53.160;6.612;2024-03-23T15:58:43;8.90;99.90
33460;DHT22;19795;53.160;6.612;2024-03-23T16:01:09;8.60;99.90
33460;DHT22;19795;53.160;6.612;2024-03-23T16:03:36;8.60;99.90
33460;DHT22;19795;53.160;6.612;2024-03-23T16:06:04;8.50;99.90
33460;DHT22;19795;53.160;6.612;2024-03-23T16:08:31;8.50;99.90
33460;DHT22;19795;53.160;6.612;2024-03-23T16:11:04;8.70;99.90
33460;DHT22;19795;53.160;6.612;2024-03-23T16:13:31;8.60;99.90
33460;DHT22;19795;53.160;6.612;2024-03-23T16:15:57;8.90;99.90
33460;DHT22;19795;53.160;6.612;2024-03-23T16:18:24;8.60;99.90
33460;DHT22;19795;53.160;6.612;2024-03-23T16:21:00;8.50;99.90
33460;DHT22;19795;53.160;6.612;2024-03-23T16:23:27;8.50;99.90
33460;DHT22;19795;53.160;6.612;2024-03-23T16:25:54;9.10;99.90
33460;DHT22;19795;53.160;6.612;2024-03-23T16:28:24;8.10;99.90
33460;DHT22;19795;53.160;6.612;2024-03-23T16:31:04;8.00;99.90
33460;DHT22;19795;53.160;6.612;2024-03-23T16:33:30;8.10;99.90
33460;DHT22;19795;53.160;6.612;2024-03-23T16:38:36;8.10;99.90
33460;DHT22;19795;53.160;6.612;2024-03-23T16:41:04;8.10;99.90
33460;DHT22;19795;53.160;6.612;2024-03-23T16:43:32;8.10;99.90
33460;DHT22;19795;53.160;6.612;2024-03-23T16:46:03;8.20;99.90
33460;DHT22;19795;53.160;6.612;2024-03-23T16:48:30;7.90;99.90
33460;DHT22;19795;53.160;6.612;2024-03-23T16:51:01;7.90;99.90
33460;DHT22;19795;53.160;6.612;2024-03-23T16:53:29;7.80;99.90
33460;DHT22;19795;53.160;6.612;2024-03-23T16:56:06;7.70;99.90
33460;DHT22;19795;53.160;6.612;2024-03-23T16:58:34;7.40;99.90
33460;DHT22;19795;53.160;6.612;2024-03-23T17:01:10;7.20;99.90
33460;DHT22;19795;53.160;6.612;2024-03-23T17:03:49;7.10;99.90
33460;DHT22;19795;53.160;6.612;2024-03-23T17:06:15;7.00;99.90
33460;DHT22;19795;53.160;6.612;2024-03-23T17:08:42;7.10;99.90
33460;DHT22;19795;53.160;6.612;2024-03-23T17:11:09;7.40;1.00
33460;DHT22;19795;53.160;6.612;2024-03-23T17:13:35;7.00;99.90
33460;DHT22;19795;53.160;6.612;2024-03-23T17:16:01;7.10;1.00
33460;DHT22;19795;53.160;6.612;2024-03-23T17:18:26;7.20;1.00
33460;DHT22;19795;53.160;6.612;2024-03-23T17:20:52;6.70;1.00
33460;DHT22;19795;53.160;6.612;2024-03-23T17:23:28;7.20;1.00
33460;DHT22;19795;53.160;6.612;2024-03-23T17:25:54;6.50;1.00
33460;DHT22;19795;53.160;6.612;2024-03-23T17:28:20;6.40;1.00
33460;DHT22;19795;53.160;6.612;2024-03-23T17:30:46;6.30;24.20
33460;DHT22;19795;53.160;6.612;2024-03-23T17:33:12;6.20;99.90
33460;DHT22;19795;53.160;6.612;2024-03-23T17:35:38;6.40;99.90
33460;DHT22;19795;53.160;6.612;2024-03-23T17:38:04;6.00;99.90
33460;DHT22;19795;53.160;6.612;2024-03-23T17:40:30;5.90;99.90
33460;DHT22;19795;53.160;6.612;2024-03-23T17:42:58;5.90;99.90
33460;DHT22;19795;53.160;6.612;2024-03-23T17:45:24;5.90;99.90
33460;DHT22;19795;53.160;6.612;2024-03-23T17:47:50;6.30;99.90
33460;DHT22;19795;53.160;6.612;2024-03-23T17:50:20;5.70;99.90
33460;DHT22;19795;53.160;6.612;2024-03-23T17:52:46;6.10;99.90
33460;DHT22;19795;53.160;6.612;2024-03-23T17:55:12;5.60;99.90
33460;DHT22;19795;53.160;6.612;2024-03-23T17:57:37;5.60;99.90
33460;DHT22;19795;53.160;6.612;2024-03-23T18:00:04;5.70;99.90
33460;DHT22;19795;53.160;6.612;2024-03-23T18:02:32;5.60;99.90
33460;DHT22;19795;53.160;6.612;2024-03-23T18:04:58;5.60;99.90
33460;DHT22;19795;53.160;6.612;2024-03-23T18:07:25;5.80;99.90
33460;DHT22;19795;53.160;6.612;2024-03-23T18:09:51;5.50;99.90
33460;DHT22;19795;53.160;6.612;2024-03-23T18:12:17;5.90;99.90
33460;DHT22;19795;53.160;6.612;2024-03-23T18:14:43;5.90;99.90
33460;DHT22;19795;53.160;6.612;2024-03-23T18:17:09;5.70;99.90
33460;DHT22;19795;53.160;6.612;2024-03-23T18:19:35;5.20;99.90
33460;DHT22;19795;53.160;6.612;2024-03-23T18:22:00;5.10;99.90
33460;DHT22;19795;53.160;6.612;2024-03-23T18:24:26;5.10;99.90
33460;DHT22;19795;53.160;6.612;2024-03-23T18:26:52;4.90;99.90
33460;DHT22;19795;53.160;6.612;2024-03-23T18:29:19;4.80;99.90
33460;DHT22;19795;53.160;6.612;2024-03-23T18:31:44;4.90;99.90
33460;DHT22;19795;53.160;6.612;2024-03-23T18:34:10;5.00;99.90
33460;DHT22;19795;53.160;6.612;2024-03-23T18:36:36;4.80;99.90
33460;DHT22;19795;53.160;6.612;2024-03-23T18:39:01;4.80;99.90
33460;DHT22;19795;53.160;6.612;2024-03-23T18:41:30;4.90;99.90
33460;DHT22;19795;53.160;6.612;2024-03-23T18:43:56;5.00;99.90
33460;DHT22;19795;53.160;6.612;2024-03-23T18:46:23;5.00;99.90
33460;DHT22;19795;53.160;6.612;2024-03-23T18:48:49;5.00;99.90
33460;DHT22;19795;53.160;6.612;2024-03-23T18:51:14;4.90;99.90
33460;DHT22;19795;53.160;6.612;2024-03-23T18:53:40;4.90;99.90
33460;DHT22;19795;53.160;6.612;2024-03-23T18:56:06;4.80;99.90
33460;DHT22;19795;53.160;6.612;2024-03-23T18:58:32;4.70;99.90
33460;DHT22;19795;53.160;6.612;2024-03-23T19:01:00;4.60;99.90
33460;DHT22;19795;53.160;6.612;2024-03-23T19:03:28;4.50;99.90
33460;DHT22;19795;53.160;6.612;2024-03-23T19:05:58;4.50;99.90
33460;DHT22;19795;53.160;6.612;2024-03-23T19:08:25;4.40;99.90
33460;DHT22;19795;53.160;6.612;2024-03-23T19:10:52;4.50;99.90
33460;DHT22;19795;53.160;6.612;2024-03-23T19:13:18;4.30;99.90
33460;DHT22;19795;53.160;6.612;2024-03-23T19:15:44;4.20;99.90
33460;DHT22;19795;53.160;6.612;2024-03-23T19:18:10;4.30;99.90
33460;DHT22;19795;53.160;6.612;2024-03-23T19:20:35;4.20;99.90
33460;DHT22;19795;53.160;6.612;2024-03-23T19:23:01;4.20;99.90
33460;DHT22;19795;53.160;6.612;2024-03-23T19:25:26;4.20;99.90
33460;DHT22;19795;53.160;6.612;2024-03-23T19:27:52;4.20;99.90
33460;DHT22;19795;53.160;6.612;2024-03-23T19:30:18;4.30;99.90
33460;DHT22;19795;53.160;6.612;2024-03-23T19:32:46;4.40;99.90
33460;DHT22;19795;53.160;6.612;2024-03-23T19:35:12;4.50;99.90
33460;DHT22;19795;53.160;6.612;2024-03-23T19:37:40;4.40;99.90
33460;DHT22;19795;53.160;6.612;2024-03-23T19:40:06;4.30;99.90
33460;DHT22;19795;53.160;6.612;2024-03-23T19:42:32;4.30;99.90
33460;DHT22;19795;53.160;6.612;2024-03-23T19:44:58;4.40;99.90
33460;DHT22;19795;53.160;6.612;2024-03-23T19:47:23;4.20;99.90
33460;DHT22;19795;53.160;6.612;2024-03-23T19:49:50;4.20;99.90
33460;DHT22;19795;53.160;6.612;2024-03-23T19:52:15;4.20;99.90
33460;DHT22;19795;53.160;6.612;2024-03-23T19:54:41;4.20;99.90
33460;DHT22;19795;53.160;6.612;2024-03-23T19:57:07;4.30;99.90
33460;DHT22;19795;53.160;6.612;2024-03-23T19:59:32;4.40;99.90
33460;DHT22;19795;53.160;6.612;2024-03-23T20:01:58;4.20;99.90
33460;DHT22;19795;53.160;6.612;2024-03-23T20:04:24;4.20;99.90
33460;DHT22;19795;53.160;6.612;2024-03-23T20:06:50;4.20;99.90
33460;DHT22;19795;53.160;6.612;2024-03-23T20:09:16;4.20;99.90
33460;DHT22;19795;53.160;6.612;2024-03-23T20:11:42;4.00;99.90
33460;DHT22;19795;53.160;6.612;2024-03-23T20:14:09;4.00;99.90
33460;DHT22;19795;53.160;6.612;2024-03-23T20:16:35;4.30;99.90
33460;DHT22;19795;53.160;6.612;2024-03-23T20:19:05;4.50;99.90
33460;DHT22;19795;53.160;6.612;2024-03-23T20:21:31;4.00;99.90
33460;DHT22;19795;53.160;6.612;2024-03-23T20:23:57;3.90;99.90
33460;DHT22;19795;53.160;6.612;2024-03-23T20:26:23;3.90;99.90
33460;DHT22;19795;53.160;6.612;2024-03-23T20:28:49;3.90;99.90
33460;DHT22;19795;53.160;6.612;2024-03-23T20:31:17;3.90;99.90
33460;DHT22;19795;53.160;6.612;2024-03-23T20:33:42;4.30;99.90
33460;DHT22;19795;53.160;6.612;2024-03-23T20:36:08;3.90;99.90
33460;DHT22;19795;53.160;6.612;2024-03-23T20:38:36;3.80;99.90
33460;DHT22;19795;53.160;6.612;2024-03-23T20:41:02;4.30;99.90
